sensor_id;sensor_type;location;lat;lon;timestamp;P1;durP1;ratioP1;P2;durP2;ratioP2
10335;SDS011;5213;53.548;9.930;2023-03-19T00:00:17;9.98;;;8.95;;
10335;SDS011;5213;53.548;9.930;2023-03-19T00:02:43;9.90;;;8.90;;
10335;SDS011;5213;53.548;9.930;2023-03-19T00:05:13;10.48;;;8.88;;
10335;SDS011;5213;53.548;9.930;2023-03-19T00:07:40;10.38;;;9.38;;
10335;SDS011;5213;53.548;9.930;2023-03-19T00:10:06;9.68;;;8.73;;
10335;SDS011;5213;53.548;9.930;2023-03-19T00:12:32;11.80;;;8.77;;
10335;SDS011;5213;53.548;9.930;2023-03-19T00:14:58;9.65;;;8.55;;
10335;SDS011;5213;53.548;9.930;2023-03-19T00:17:24;8.32;;;7.47;;
10335;SDS011;5213;53.548;9.930;2023-03-19T00:19:50;8.77;;;7.88;;
10335;SDS011;5213;53.548;9.930;2023-03-19T00:22:16;8.85;;;7.95;;
10335;SDS011;5213;53.548;9.930;2023-03-19T00:24:42;8.15;;;7.35;;
10335;SDS011;5213;53.548;9.930;2023-03-19T00:27:08;8.15;;;7.35;;
10335;SDS011;5213;53.548;9.930;2023-03-19T00:29:34;7.78;;;6.82;;
10335;SDS011;5213;53.548;9.930;2023-03-19T00:32:01;7.93;;;7.13;;
10335;SDS011;5213;53.548;9.930;2023-03-19T00:34:27;7.90;;;7.10;;
10335;SDS011;5213;53.548;9.930;2023-03-19T00:36:53;8.27;;;7.35;;
10335;SDS011;5213;53.548;9.930;2023-03-19T00:39:20;7.80;;;7.00;;
10335;SDS011;5213;53.548;9.930;2023-03-19T00:41:47;8.40;;;7.03;;
10335;SDS011;5213;53.548;9.930;2023-03-19T00:44:15;7.63;;;6.78;;
10335;SDS011;5213;53.548;9.930;2023-03-19T00:46:42;6.60;;;6.00;;
10335;SDS011;5213;53.548;9.930;2023-03-19T00:49:08;8.00;;;6.10;;
10335;SDS011;5213;53.548;9.930;2023-03-19T00:51:34;7.15;;;6.55;;
10335;SDS011;5213;53.548;9.930;2023-03-19T00:54:00;7.13;;;6.43;;
10335;SDS011;5213;53.548;9.930;2023-03-19T00:56:26;7.28;;;5.85;;
10335;SDS011;5213;53.548;9.930;2023-03-19T00:58:54;7.63;;;6.22;;
10335;SDS011;5213;53.548;9.930;2023-03-19T01:01:20;6.50;;;6.00;;
10335;SDS011;5213;53.548;9.930;2023-03-19T01:03:47;6.10;;;5.50;;
10335;SDS011;5213;53.548;9.930;2023-03-19T01:06:15;7.00;;;5.72;;
10335;SDS011;5213;53.548;9.930;2023-03-19T01:08:42;6.72;;;5.68;;
10335;SDS011;5213;53.548;9.930;2023-03-19T01:11:10;6.05;;;5.55;;
10335;SDS011;5213;53.548;9.930;2023-03-19T01:13:37;6.13;;;5.60;;
10335;SDS011;5213;53.548;9.930;2023-03-19T01:16:03;6.00;;;5.50;;
10335;SDS011;5213;53.548;9.930;2023-03-19T01:18:29;6.18;;;5.63;;
10335;SDS011;5213;53.548;9.930;2023-03-19T01:20:56;6.18;;;5.25;;
10335;SDS011;5213;53.548;9.930;2023-03-19T01:23:22;5.70;;;5.03;;
10335;SDS011;5213;53.548;9.930;2023-03-19T01:25:48;7.18;;;5.35;;
10335;SDS011;5213;53.548;9.930;2023-03-19T01:28:14;5.32;;;4.82;;
10335;SDS011;5213;53.548;9.930;2023-03-19T01:30:40;6.13;;;5.20;;
10335;SDS011;5213;53.548;9.930;2023-03-19T01:33:06;5.30;;;4.80;;
10335;SDS011;5213;53.548;9.930;2023-03-19T01:35:32;6.40;;;5.20;;
10335;SDS011;5213;53.548;9.930;2023-03-19T01:37:58;5.38;;;4.97;;
10335;SDS011;5213;53.548;9.930;2023-03-19T01:40:24;4.70;;;4.30;;
10335;SDS011;5213;53.548;9.930;2023-03-19T01:43:10;4.60;;;4.20;;
10335;SDS011;5213;53.548;9.930;2023-03-19T01:45:37;5.30;;;4.60;;
10335;SDS011;5213;53.548;9.930;2023-03-19T01:48:04;4.85;;;4.45;;
10335;SDS011;5213;53.548;9.930;2023-03-19T01:50:39;4.30;;;3.90;;
10335;SDS011;5213;53.548;9.930;2023-03-19T01:53:07;4.45;;;4.15;;
10335;SDS011;5213;53.548;9.930;2023-03-19T01:55:34;3.90;;;3.53;;
10335;SDS011;5213;53.548;9.930;2023-03-19T01:58:00;3.65;;;3.35;;
10335;SDS011;5213;53.548;9.930;2023-03-19T02:00:27;4.00;;;3.60;;
10335;SDS011;5213;53.548;9.930;2023-03-19T02:02:53;3.80;;;3.50;;
10335;SDS011;5213;53.548;9.930;2023-03-19T02:05:21;4.18;;;3.88;;
10335;SDS011;5213;53.548;9.930;2023-03-19T02:07:54;3.60;;;3.33;;
10335;SDS011;5213;53.548;9.930;2023-03-19T02:10:21;3.70;;;3.40;;
10335;SDS011;5213;53.548;9.930;2023-03-19T02:12:48;4.28;;;3.88;;
10335;SDS011;5213;53.548;9.930;2023-03-19T02:15:14;4.22;;;3.83;;
10335;SDS011;5213;53.548;9.930;2023-03-19T02:17:40;4.20;;;3.90;;
10335;SDS011;5213;53.548;9.930;2023-03-19T02:20:09;4.65;;;4.25;;
10335;SDS011;5213;53.548;9.930;2023-03-19T02:22:40;5.25;;;4.80;;
10335;SDS011;5213;53.548;9.930;2023-03-19T02:27:32;5.55;;;5.00;;
10335;SDS011;5213;53.548;9.930;2023-03-19T02:29:58;6.03;;;5.10;;
10335;SDS011;5213;53.548;9.930;2023-03-19T02:32:24;5.43;;;4.75;;
10335;SDS011;5213;53.548;9.930;2023-03-19T02:34:50;5.40;;;4.90;;
10335;SDS011;5213;53.548;9.930;2023-03-19T02:37:21;5.10;;;4.70;;
10335;SDS011;5213;53.548;9.930;2023-03-19T02:39:50;5.55;;;5.05;;
10335;SDS011;5213;53.548;9.930;2023-03-19T02:42:19;5.70;;;5.15;;
10335;SDS011;5213;53.548;9.930;2023-03-19T02:44:46;6.90;;;5.40;;
10335;SDS011;5213;53.548;9.930;2023-03-19T02:47:13;5.78;;;5.22;;
10335;SDS011;5213;53.548;9.930;2023-03-19T02:49:39;6.25;;;5.75;;
10335;SDS011;5213;53.548;9.930;2023-03-19T02:52:05;6.30;;;5.30;;
10335;SDS011;5213;53.548;9.930;2023-03-19T02:54:31;6.72;;;5.90;;
10335;SDS011;5213;53.548;9.930;2023-03-19T02:56:57;7.28;;;5.72;;
10335;SDS011;5213;53.548;9.930;2023-03-19T02:59:23;6.53;;;5.93;;
10335;SDS011;5213;53.548;9.930;2023-03-19T03:01:50;6.13;;;5.53;;
10335;SDS011;5213;53.548;9.930;2023-03-19T03:04:16;5.78;;;5.28;;
10335;SDS011;5213;53.548;9.930;2023-03-19T03:06:42;6.72;;;5.65;;
10335;SDS011;5213;53.548;9.930;2023-03-19T03:09:08;5.55;;;5.00;;
10335;SDS011;5213;53.548;9.930;2023-03-19T03:11:35;6.28;;;5.68;;
10335;SDS011;5213;53.548;9.930;2023-03-19T03:14:01;6.28;;;5.68;;
10335;SDS011;5213;53.548;9.930;2023-03-19T03:16:27;6.80;;;6.10;;
10335;SDS011;5213;53.548;9.930;2023-03-19T03:18:53;7.13;;;5.68;;
10335;SDS011;5213;53.548;9.930;2023-03-19T03:21:19;6.07;;;5.57;;
10335;SDS011;5213;53.548;9.930;2023-03-19T03:23:45;5.90;;;5.40;;
10335;SDS011;5213;53.548;9.930;2023-03-19T03:26:12;5.47;;;5.00;;
10335;SDS011;5213;53.548;9.930;2023-03-19T03:28:38;6.45;;;5.30;;
10335;SDS011;5213;53.548;9.930;2023-03-19T03:31:04;7.35;;;5.22;;
10335;SDS011;5213;53.548;9.930;2023-03-19T03:33:30;6.03;;;5.43;;
10335;SDS011;5213;53.548;9.930;2023-03-19T03:35:57;5.95;;;5.45;;
10335;SDS011;5213;53.548;9.930;2023-03-19T03:38:23;7.07;;;6.18;;
10335;SDS011;5213;53.548;9.930;2023-03-19T03:40:52;6.40;;;5.80;;
10335;SDS011;5213;53.548;9.930;2023-03-19T03:43:18;6.90;;;5.90;;
10335;SDS011;5213;53.548;9.930;2023-03-19T03:45:45;6.80;;;5.88;;
10335;SDS011;5213;53.548;9.930;2023-03-19T03:48:11;6.28;;;5.72;;
10335;SDS011;5213;53.548;9.930;2023-03-19T03:50:37;6.35;;;5.75;;
10335;SDS011;5213;53.548;9.930;2023-03-19T03:53:04;6.38;;;5.75;;
10335;SDS011;5213;53.548;9.930;2023-03-19T03:55:30;5.97;;;5.43;;
10335;SDS011;5213;53.548;9.930;2023-03-19T03:57:57;5.82;;;5.35;;
10335;SDS011;5213;53.548;9.930;2023-03-19T04:00:23;6.15;;;5.55;;
10335;SDS011;5213;53.548;9.930;2023-03-19T04:02:49;5.68;;;4.80;;
10335;SDS011;5213;53.548;9.930;2023-03-19T04:05:15;5.70;;;5.20;;
10335;SDS011;5213;53.548;9.930;2023-03-19T04:07:41;5.78;;;5.28;;
10335;SDS011;5213;53.548;9.930;2023-03-19T04:10:08;5.60;;;5.03;;
10335;SDS011;5213;53.548;9.930;2023-03-19T04:12:35;6.15;;;5.65;;
10335;SDS011;5213;53.548;9.930;2023-03-19T04:15:02;6.43;;;5.80;;
10335;SDS011;5213;53.548;9.930;2023-03-19T04:17:28;6.50;;;5.75;;
10335;SDS011;5213;53.548;9.930;2023-03-19T04:19:54;6.35;;;5.80;;
10335;SDS011;5213;53.548;9.930;2023-03-19T04:22:20;6.07;;;5.57;;
10335;SDS011;5213;53.548;9.930;2023-03-19T04:24:46;6.38;;;5.78;;
10335;SDS011;5213;53.548;9.930;2023-03-19T04:27:12;6.25;;;5.65;;
10335;SDS011;5213;53.548;9.930;2023-03-19T04:29:38;6.75;;;6.15;;
10335;SDS011;5213;53.548;9.930;2023-03-19T04:32:05;6.30;;;5.82;;
10335;SDS011;5213;53.548;9.930;2023-03-19T04:34:31;6.78;;;6.18;;
10335;SDS011;5213;53.548;9.930;2023-03-19T04:36:57;8.88;;;6.70;;
10335;SDS011;5213;53.548;9.930;2023-03-19T04:39:23;7.60;;;6.57;;
10335;SDS011;5213;53.548;9.930;2023-03-19T04:41:50;7.18;;;6.57;;
10335;SDS011;5213;53.548;9.930;2023-03-19T04:44:16;7.20;;;6.50;;
10335;SDS011;5213;53.548;9.930;2023-03-19T04:46:42;7.05;;;6.45;;
10335;SDS011;5213;53.548;9.930;2023-03-19T04:49:11;7.63;;;6.93;;
10335;SDS011;5213;53.548;9.930;2023-03-19T04:51:38;7.25;;;6.65;;
10335;SDS011;5213;53.548;9.930;2023-03-19T04:54:04;7.63;;;6.75;;
10335;SDS011;5213;53.548;9.930;2023-03-19T04:56:30;7.07;;;6.38;;
10335;SDS011;5213;53.548;9.930;2023-03-19T04:58:57;7.00;;;6.30;;
10335;SDS011;5213;53.548;9.930;2023-03-19T05:01:23;7.53;;;6.88;;
10335;SDS011;5213;53.548;9.930;2023-03-19T05:03:49;7.10;;;6.40;;
10335;SDS011;5213;53.548;9.930;2023-03-19T05:06:15;6.63;;;6.03;;
10335;SDS011;5213;53.548;9.930;2023-03-19T05:08:41;8.15;;;7.47;;
10335;SDS011;5213;53.548;9.930;2023-03-19T05:11:07;15.35;;;14.10;;
10335;SDS011;5213;53.548;9.930;2023-03-19T05:13:33;15.52;;;14.23;;
10335;SDS011;5213;53.548;9.930;2023-03-19T05:16:00;20.38;;;18.58;;
10335;SDS011;5213;53.548;9.930;2023-03-19T05:18:27;26.88;;;24.67;;
10335;SDS011;5213;53.548;9.930;2023-03-19T05:20:53;33.45;;;30.65;;
10335;SDS011;5213;53.548;9.930;2023-03-19T05:23:19;36.45;;;33.30;;
10335;SDS011;5213;53.548;9.930;2023-03-19T05:25:46;33.63;;;30.73;;
10335;SDS011;5213;53.548;9.930;2023-03-19T05:28:13;30.65;;;27.92;;
10335;SDS011;5213;53.548;9.930;2023-03-19T05:30:39;21.10;;;19.30;;
10335;SDS011;5213;53.548;9.930;2023-03-19T05:33:06;21.70;;;19.90;;
10335;SDS011;5213;53.548;9.930;2023-03-19T05:35:32;17.80;;;16.30;;
10335;SDS011;5213;53.548;9.930;2023-03-19T05:37:59;17.33;;;15.82;;
10335;SDS011;5213;53.548;9.930;2023-03-19T05:40:26;13.70;;;12.57;;
10335;SDS011;5213;53.548;9.930;2023-03-19T05:42:52;11.32;;;10.32;;
10335;SDS011;5213;53.548;9.930;2023-03-19T05:45:18;10.40;;;9.30;;
10335;SDS011;5213;53.548;9.930;2023-03-19T05:47:47;10.20;;;9.25;;
10335;SDS011;5213;53.548;9.930;2023-03-19T05:50:14;10.63;;;9.70;;
10335;SDS011;5213;53.548;9.930;2023-03-19T05:52:40;9.50;;;8.68;;
10335;SDS011;5213;53.548;9.930;2023-03-19T05:55:06;8.80;;;7.90;;
10335;SDS011;5213;53.548;9.930;2023-03-19T05:57:33;9.07;;;8.27;;
10335;SDS011;5213;53.548;9.930;2023-03-19T05:59:59;9.90;;;8.98;;
10335;SDS011;5213;53.548;9.930;2023-03-19T06:02:25;9.75;;;8.75;;
10335;SDS011;5213;53.548;9.930;2023-03-19T06:04:52;8.85;;;7.95;;
10335;SDS011;5213;53.548;9.930;2023-03-19T06:07:18;8.98;;;8.07;;
10335;SDS011;5213;53.548;9.930;2023-03-19T06:09:44;8.93;;;7.95;;
10335;SDS011;5213;53.548;9.930;2023-03-19T06:12:10;8.93;;;8.18;;
10335;SDS011;5213;53.548;9.930;2023-03-19T06:14:36;8.23;;;7.53;;
10335;SDS011;5213;53.548;9.930;2023-03-19T06:17:02;8.07;;;7.38;;
10335;SDS011;5213;53.548;9.930;2023-03-19T06:19:28;8.50;;;7.75;;
10335;SDS011;5213;53.548;9.930;2023-03-19T06:21:54;8.05;;;7.35;;
10335;SDS011;5213;53.548;9.930;2023-03-19T06:24:20;8.45;;;7.65;;
10335;SDS011;5213;53.548;9.930;2023-03-19T06:26:46;10.02;;;7.82;;
10335;SDS011;5213;53.548;9.930;2023-03-19T06:29:12;8.45;;;7.65;;
10335;SDS011;5213;53.548;9.930;2023-03-19T06:31:39;8.50;;;7.70;;
10335;SDS011;5213;53.548;9.930;2023-03-19T06:34:05;8.00;;;7.30;;
10335;SDS011;5213;53.548;9.930;2023-03-19T06:36:31;8.07;;;7.28;;
10335;SDS011;5213;53.548;9.930;2023-03-19T06:38:57;8.10;;;7.40;;
10335;SDS011;5213;53.548;9.930;2023-03-19T06:41:23;8.07;;;7.28;;
10335;SDS011;5213;53.548;9.930;2023-03-19T06:43:50;7.90;;;7.20;;
10335;SDS011;5213;53.548;9.930;2023-03-19T06:46:16;8.75;;;6.85;;
10335;SDS011;5213;53.548;9.930;2023-03-19T06:48:42;7.35;;;6.65;;
10335;SDS011;5213;53.548;9.930;2023-03-19T06:51:08;7.78;;;7.07;;
10335;SDS011;5213;53.548;9.930;2023-03-19T06:53:34;7.50;;;6.90;;
10335;SDS011;5213;53.548;9.930;2023-03-19T06:56:00;7.25;;;6.55;;
10335;SDS011;5213;53.548;9.930;2023-03-19T06:58:26;7.47;;;6.78;;
10335;SDS011;5213;53.548;9.930;2023-03-19T07:00:52;7.80;;;7.10;;
10335;SDS011;5213;53.548;9.930;2023-03-19T07:03:18;7.57;;;6.85;;
10335;SDS011;5213;53.548;9.930;2023-03-19T07:05:44;7.75;;;7.05;;
10335;SDS011;5213;53.548;9.930;2023-03-19T07:08:10;7.25;;;6.65;;
10335;SDS011;5213;53.548;9.930;2023-03-19T07:10:37;8.05;;;7.10;;
10335;SDS011;5213;53.548;9.930;2023-03-19T07:13:03;8.30;;;7.38;;
10335;SDS011;5213;53.548;9.930;2023-03-19T07:15:30;7.57;;;6.95;;
10335;SDS011;5213;53.548;9.930;2023-03-19T07:17:56;7.68;;;6.95;;
10335;SDS011;5213;53.548;9.930;2023-03-19T07:20:22;7.35;;;6.65;;
10335;SDS011;5213;53.548;9.930;2023-03-19T07:22:51;7.63;;;6.90;;
10335;SDS011;5213;53.548;9.930;2023-03-19T07:25:17;7.38;;;6.65;;
10335;SDS011;5213;53.548;9.930;2023-03-19T07:27:43;7.47;;;6.68;;
10335;SDS011;5213;53.548;9.930;2023-03-19T07:30:10;7.05;;;6.45;;
10335;SDS011;5213;53.548;9.930;2023-03-19T07:32:36;7.40;;;6.75;;
10335;SDS011;5213;53.548;9.930;2023-03-19T07:35:03;7.55;;;6.63;;
10335;SDS011;5213;53.548;9.930;2023-03-19T07:37:29;7.30;;;6.60;;
10335;SDS011;5213;53.548;9.930;2023-03-19T07:39:55;6.72;;;6.00;;
10335;SDS011;5213;53.548;9.930;2023-03-19T07:42:22;6.68;;;5.90;;
10335;SDS011;5213;53.548;9.930;2023-03-19T07:44:48;6.68;;;6.07;;
10335;SDS011;5213;53.548;9.930;2023-03-19T07:47:14;6.47;;;5.88;;
10335;SDS011;5213;53.548;9.930;2023-03-19T07:49:41;6.65;;;6.03;;
10335;SDS011;5213;53.548;9.930;2023-03-19T07:52:07;7.93;;;5.95;;
10335;SDS011;5213;53.548;9.930;2023-03-19T07:54:33;6.25;;;5.70;;
10335;SDS011;5213;53.548;9.930;2023-03-19T07:56:59;7.22;;;6.55;;
10335;SDS011;5213;53.548;9.930;2023-03-19T07:59:25;7.55;;;6.25;;
10335;SDS011;5213;53.548;9.930;2023-03-19T08:01:51;6.82;;;6.22;;
10335;SDS011;5213;53.548;9.930;2023-03-19T08:04:17;7.28;;;6.60;;
10335;SDS011;5213;53.548;9.930;2023-03-19T08:06:43;8.55;;;6.45;;
10335;SDS011;5213;53.548;9.930;2023-03-19T08:09:10;6.72;;;6.13;;
10335;SDS011;5213;53.548;9.930;2023-03-19T08:11:36;6.38;;;5.78;;
10335;SDS011;5213;53.548;9.930;2023-03-19T08:14:02;7.80;;;6.47;;
10335;SDS011;5213;53.548;9.930;2023-03-19T08:16:28;7.07;;;6.47;;
10335;SDS011;5213;53.548;9.930;2023-03-19T08:18:55;6.97;;;6.35;;
10335;SDS011;5213;53.548;9.930;2023-03-19T08:21:21;8.13;;;6.72;;
10335;SDS011;5213;53.548;9.930;2023-03-19T08:23:47;6.82;;;6.28;;
10335;SDS011;5213;53.548;9.930;2023-03-19T08:26:13;6.90;;;6.30;;
10335;SDS011;5213;53.548;9.930;2023-03-19T08:28:39;8.02;;;6.70;;
10335;SDS011;5213;53.548;9.930;2023-03-19T08:31:06;7.88;;;6.40;;
10335;SDS011;5213;53.548;9.930;2023-03-19T08:33:32;7.40;;;6.63;;
10335;SDS011;5213;53.548;9.930;2023-03-19T08:36:08;8.48;;;6.95;;
10335;SDS011;5213;53.548;9.930;2023-03-19T08:38:35;7.45;;;6.50;;
10335;SDS011;5213;53.548;9.930;2023-03-19T08:41:01;8.93;;;7.00;;
10335;SDS011;5213;53.548;9.930;2023-03-19T08:43:29;8.13;;;7.32;;
10335;SDS011;5213;53.548;9.930;2023-03-19T08:45:55;9.43;;;7.05;;
10335;SDS011;5213;53.548;9.930;2023-03-19T08:48:21;8.45;;;7.55;;
10335;SDS011;5213;53.548;9.930;2023-03-19T08:50:54;8.05;;;7.25;;
10335;SDS011;5213;53.548;9.930;2023-03-19T08:53:21;8.60;;;7.10;;
10335;SDS011;5213;53.548;9.930;2023-03-19T08:55:58;7.50;;;6.18;;
10335;SDS011;5213;53.548;9.930;2023-03-19T08:58:24;7.65;;;6.35;;
10335;SDS011;5213;53.548;9.930;2023-03-19T09:00:51;7.25;;;6.03;;
10335;SDS011;5213;53.548;9.930;2023-03-19T09:03:17;6.68;;;5.90;;
10335;SDS011;5213;53.548;9.930;2023-03-19T09:05:43;7.28;;;6.57;;
10335;SDS011;5213;53.548;9.930;2023-03-19T09:08:10;6.70;;;6.00;;
10335;SDS011;5213;53.548;9.930;2023-03-19T09:10:36;7.88;;;6.05;;
10335;SDS011;5213;53.548;9.930;2023-03-19T09:13:02;6.35;;;5.53;;
10335;SDS011;5213;53.548;9.930;2023-03-19T09:15:28;5.35;;;4.95;;
10335;SDS011;5213;53.548;9.930;2023-03-19T09:17:54;5.35;;;4.85;;
10335;SDS011;5213;53.548;9.930;2023-03-19T09:20:20;6.72;;;5.30;;
10335;SDS011;5213;53.548;9.930;2023-03-19T09:22:46;5.70;;;4.72;;
10335;SDS011;5213;53.548;9.930;2023-03-19T09:25:13;5.15;;;4.65;;
10335;SDS011;5213;53.548;9.930;2023-03-19T09:27:39;5.10;;;4.60;;
10335;SDS011;5213;53.548;9.930;2023-03-19T09:30:05;5.32;;;4.82;;
10335;SDS011;5213;53.548;9.930;2023-03-19T09:32:33;5.45;;;4.90;;
10335;SDS011;5213;53.548;9.930;2023-03-19T09:34:59;5.75;;;4.60;;
10335;SDS011;5213;53.548;9.930;2023-03-19T09:37:26;4.65;;;4.25;;
10335;SDS011;5213;53.548;9.930;2023-03-19T09:39:52;5.15;;;4.63;;
10335;SDS011;5213;53.548;9.930;2023-03-19T09:42:39;8.18;;;5.95;;
10335;SDS011;5213;53.548;9.930;2023-03-19T09:45:17;5.85;;;5.25;;
10335;SDS011;5213;53.548;9.930;2023-03-19T09:47:43;3.72;;;3.42;;
10335;SDS011;5213;53.548;9.930;2023-03-19T09:55:14;4.00;;;3.53;;
10335;SDS011;5213;53.548;9.930;2023-03-19T09:57:42;3.80;;;3.40;;
10335;SDS011;5213;53.548;9.930;2023-03-19T10:00:12;3.97;;;3.58;;
10335;SDS011;5213;53.548;9.930;2023-03-19T10:02:39;3.83;;;3.47;;
10335;SDS011;5213;53.548;9.930;2023-03-19T10:05:14;3.90;;;3.53;;
10335;SDS011;5213;53.548;9.930;2023-03-19T10:15:39;5.22;;;3.88;;
10335;SDS011;5213;53.548;9.930;2023-03-19T10:20:45;4.40;;;3.47;;
10335;SDS011;5213;53.548;9.930;2023-03-19T10:25:58;3.95;;;3.53;;
10335;SDS011;5213;53.548;9.930;2023-03-19T10:28:25;4.05;;;3.60;;
10335;SDS011;5213;53.548;9.930;2023-03-19T10:30:59;3.95;;;3.65;;
10335;SDS011;5213;53.548;9.930;2023-03-19T10:33:31;4.57;;;3.17;;
10335;SDS011;5213;53.548;9.930;2023-03-19T10:36:02;4.07;;;3.67;;
10335;SDS011;5213;53.548;9.930;2023-03-19T10:38:29;3.95;;;3.60;;
10335;SDS011;5213;53.548;9.930;2023-03-19T10:43:26;4.13;;;3.50;;
10335;SDS011;5213;53.548;9.930;2023-03-19T10:45:53;3.40;;;3.17;;
10335;SDS011;5213;53.548;9.930;2023-03-19T10:48:19;3.60;;;3.30;;
10335;SDS011;5213;53.548;9.930;2023-03-19T10:50:56;3.60;;;3.30;;
10335;SDS011;5213;53.548;9.930;2023-03-19T10:53:36;4.68;;;3.50;;
10335;SDS011;5213;53.548;9.930;2023-03-19T10:56:15;5.05;;;3.38;;
10335;SDS011;5213;53.548;9.930;2023-03-19T10:58:42;4.07;;;3.17;;
10335;SDS011;5213;53.548;9.930;2023-03-19T11:01:20;3.90;;;3.60;;
10335;SDS011;5213;53.548;9.930;2023-03-19T11:06:15;5.30;;;3.55;;
10335;SDS011;5213;53.548;9.930;2023-03-19T11:08:42;4.22;;;3.72;;
10335;SDS011;5213;53.548;9.930;2023-03-19T11:11:21;5.43;;;3.83;;
10335;SDS011;5213;53.548;9.930;2023-03-19T11:13:47;4.53;;;4.13;;
10335;SDS011;5213;53.548;9.930;2023-03-19T11:16:14;4.60;;;4.20;;
10335;SDS011;5213;53.548;9.930;2023-03-19T11:18:40;4.85;;;4.40;;
10335;SDS011;5213;53.548;9.930;2023-03-19T11:21:07;5.38;;;4.57;;
10335;SDS011;5213;53.548;9.930;2023-03-19T11:23:45;5.28;;;4.72;;
10335;SDS011;5213;53.548;9.930;2023-03-19T11:26:19;4.95;;;4.53;;
10335;SDS011;5213;53.548;9.930;2023-03-19T11:28:49;5.68;;;4.50;;
10335;SDS011;5213;53.548;9.930;2023-03-19T11:44:23;5.32;;;4.50;;
10335;SDS011;5213;53.548;9.930;2023-03-19T11:51:50;5.53;;;5.03;;
10335;SDS011;5213;53.548;9.930;2023-03-19T11:54:25;4.78;;;4.38;;
10335;SDS011;5213;53.548;9.930;2023-03-19T11:57:00;5.22;;;4.70;;
10335;SDS011;5213;53.548;9.930;2023-03-19T11:59:36;5.72;;;4.95;;
10335;SDS011;5213;53.548;9.930;2023-03-19T12:12:57;5.38;;;4.90;;
10335;SDS011;5213;53.548;9.930;2023-03-19T12:15:28;6.00;;;4.93;;
10335;SDS011;5213;53.548;9.930;2023-03-19T12:20:43;5.15;;;4.65;;
10335;SDS011;5213;53.548;9.930;2023-03-19T12:23:19;5.72;;;4.93;;
10335;SDS011;5213;53.548;9.930;2023-03-19T12:25:59;5.47;;;4.60;;
10335;SDS011;5213;53.548;9.930;2023-03-19T12:28:45;5.28;;;4.78;;
10335;SDS011;5213;53.548;9.930;2023-03-19T12:39:28;3.95;;;3.38;;
10335;SDS011;5213;53.548;9.930;2023-03-19T12:41:56;3.38;;;3.08;;
10335;SDS011;5213;53.548;9.930;2023-03-19T12:44:25;3.35;;;3.00;;
10335;SDS011;5213;53.548;9.930;2023-03-19T12:51:50;3.88;;;2.97;;
10335;SDS011;5213;53.548;9.930;2023-03-19T12:54:18;3.78;;;2.80;;
10335;SDS011;5213;53.548;9.930;2023-03-19T12:56:56;4.00;;;3.17;;
10335;SDS011;5213;53.548;9.930;2023-03-19T13:01:50;2.92;;;2.72;;
10335;SDS011;5213;53.548;9.930;2023-03-19T13:04:20;3.08;;;2.78;;
10335;SDS011;5213;53.548;9.930;2023-03-19T13:06:52;3.15;;;2.75;;
10335;SDS011;5213;53.548;9.930;2023-03-19T13:09:27;4.05;;;3.00;;
10335;SDS011;5213;53.548;9.930;2023-03-19T13:11:59;6.20;;;3.28;;
10335;SDS011;5213;53.548;9.930;2023-03-19T13:19:33;4.55;;;3.65;;
10335;SDS011;5213;53.548;9.930;2023-03-19T13:22:02;4.78;;;3.70;;
10335;SDS011;5213;53.548;9.930;2023-03-19T13:24:30;5.78;;;3.58;;
10335;SDS011;5213;53.548;9.930;2023-03-19T13:26:58;5.15;;;3.30;;
10335;SDS011;5213;53.548;9.930;2023-03-19T13:29:29;4.53;;;3.58;;
10335;SDS011;5213;53.548;9.930;2023-03-19T13:32:03;3.55;;;3.25;;
10335;SDS011;5213;53.548;9.930;2023-03-19T13:34:31;5.03;;;3.40;;
10335;SDS011;5213;53.548;9.930;2023-03-19T13:39:25;3.55;;;3.25;;
10335;SDS011;5213;53.548;9.930;2023-03-19T13:46:53;4.03;;;3.65;;
10335;SDS011;5213;53.548;9.930;2023-03-19T13:52:02;5.05;;;3.65;;
10335;SDS011;5213;53.548;9.930;2023-03-19T13:54:49;5.43;;;4.45;;
10335;SDS011;5213;53.548;9.930;2023-03-19T13:57:17;5.75;;;4.28;;
10335;SDS011;5213;53.548;9.930;2023-03-19T13:59:45;5.72;;;4.63;;
10335;SDS011;5213;53.548;9.930;2023-03-19T14:07:17;4.90;;;4.50;;
10335;SDS011;5213;53.548;9.930;2023-03-19T14:09:46;5.70;;;4.60;;
10335;SDS011;5213;53.548;9.930;2023-03-19T14:14:43;4.57;;;4.18;;
10335;SDS011;5213;53.548;9.930;2023-03-19T14:17:14;4.78;;;4.38;;
10335;SDS011;5213;53.548;9.930;2023-03-19T14:19:41;4.88;;;4.15;;
10335;SDS011;5213;53.548;9.930;2023-03-19T14:22:18;4.63;;;4.28;;
10335;SDS011;5213;53.548;9.930;2023-03-19T14:25:50;5.82;;;4.70;;
10335;SDS011;5213;53.548;9.930;2023-03-19T14:27:31;4.93;;;4.22;;
10335;SDS011;5213;53.548;9.930;2023-03-19T14:30:10;5.10;;;4.55;;
10335;SDS011;5213;53.548;9.930;2023-03-19T14:32:40;5.40;;;4.63;;
10335;SDS011;5213;53.548;9.930;2023-03-19T14:35:12;5.20;;;4.65;;
10335;SDS011;5213;53.548;9.930;2023-03-19T14:37:43;4.78;;;4.38;;
10335;SDS011;5213;53.548;9.930;2023-03-19T14:45:42;5.13;;;4.63;;
10335;SDS011;5213;53.548;9.930;2023-03-19T14:56:10;6.18;;;4.90;;
10335;SDS011;5213;53.548;9.930;2023-03-19T14:58:45;6.15;;;5.55;;
10335;SDS011;5213;53.548;9.930;2023-03-19T15:01:11;6.68;;;5.97;;
10335;SDS011;5213;53.548;9.930;2023-03-19T15:03:37;6.50;;;5.90;;
10335;SDS011;5213;53.548;9.930;2023-03-19T15:06:04;6.40;;;5.78;;
10335;SDS011;5213;53.548;9.930;2023-03-19T15:08:32;7.30;;;6.22;;
10335;SDS011;5213;53.548;9.930;2023-03-19T15:17:24;8.25;;;7.13;;
10335;SDS011;5213;53.548;9.930;2023-03-19T15:19:22;8.82;;;7.32;;
10335;SDS011;5213;53.548;9.930;2023-03-19T15:21:50;11.82;;;8.10;;
10335;SDS011;5213;53.548;9.930;2023-03-19T15:24:16;8.35;;;7.47;;
10335;SDS011;5213;53.548;9.930;2023-03-19T15:26:42;10.10;;;9.05;;
10335;SDS011;5213;53.548;9.930;2023-03-19T15:29:08;10.52;;;9.52;;
10335;SDS011;5213;53.548;9.930;2023-03-19T15:31:48;12.05;;;10.85;;
10335;SDS011;5213;53.548;9.930;2023-03-19T15:34:19;11.40;;;10.30;;
10335;SDS011;5213;53.548;9.930;2023-03-19T15:36:46;12.35;;;11.15;;
10335;SDS011;5213;53.548;9.930;2023-03-19T15:39:12;12.85;;;10.93;;
10335;SDS011;5213;53.548;9.930;2023-03-19T15:41:43;12.95;;;11.65;;
10335;SDS011;5213;53.548;9.930;2023-03-19T15:44:13;12.60;;;11.40;;
10335;SDS011;5213;53.548;9.930;2023-03-19T15:46:40;11.90;;;10.52;;
10335;SDS011;5213;53.548;9.930;2023-03-19T15:49:10;12.77;;;11.43;;
10335;SDS011;5213;53.548;9.930;2023-03-19T15:51:38;12.93;;;11.48;;
10335;SDS011;5213;53.548;9.930;2023-03-19T15:54:05;13.02;;;11.73;;
10335;SDS011;5213;53.548;9.930;2023-03-19T15:56:31;13.02;;;11.82;;
10335;SDS011;5213;53.548;9.930;2023-03-19T15:58:57;13.70;;;12.30;;
10335;SDS011;5213;53.548;9.930;2023-03-19T16:01:24;15.75;;;13.30;;
10335;SDS011;5213;53.548;9.930;2023-03-19T16:03:58;14.57;;;12.80;;
10335;SDS011;5213;53.548;9.930;2023-03-19T16:06:27;14.35;;;12.82;;
10335;SDS011;5213;53.548;9.930;2023-03-19T16:08:54;15.32;;;13.73;;
10335;SDS011;5213;53.548;9.930;2023-03-19T16:14:30;15.27;;;13.77;;
10335;SDS011;5213;53.548;9.930;2023-03-19T16:16:36;15.75;;;14.18;;
10335;SDS011;5213;53.548;9.930;2023-03-19T16:19:04;15.75;;;14.07;;
10335;SDS011;5213;53.548;9.930;2023-03-19T16:21:37;15.65;;;14.10;;
10335;SDS011;5213;53.548;9.930;2023-03-19T16:26:51;17.98;;;15.00;;
10335;SDS011;5213;53.548;9.930;2023-03-19T16:31:44;16.35;;;14.75;;
10335;SDS011;5213;53.548;9.930;2023-03-19T16:34:22;15.40;;;13.90;;
10335;SDS011;5213;53.548;9.930;2023-03-19T16:36:49;16.20;;;14.50;;
10335;SDS011;5213;53.548;9.930;2023-03-19T16:41:44;14.77;;;13.32;;
10335;SDS011;5213;53.548;9.930;2023-03-19T16:44:27;15.00;;;13.52;;
10335;SDS011;5213;53.548;9.930;2023-03-19T16:46:53;15.10;;;13.77;;
10335;SDS011;5213;53.548;9.930;2023-03-19T16:49:19;13.95;;;12.48;;
10335;SDS011;5213;53.548;9.930;2023-03-19T16:51:45;14.82;;;13.32;;
10335;SDS011;5213;53.548;9.930;2023-03-19T16:54:12;14.02;;;12.70;;
10335;SDS011;5213;53.548;9.930;2023-03-19T16:56:38;14.65;;;13.15;;
10335;SDS011;5213;53.548;9.930;2023-03-19T16:59:04;13.98;;;12.50;;
10335;SDS011;5213;53.548;9.930;2023-03-19T17:01:30;15.07;;;13.48;;
10335;SDS011;5213;53.548;9.930;2023-03-19T17:03:57;15.55;;;13.98;;
10335;SDS011;5213;53.548;9.930;2023-03-19T17:06:23;14.43;;;13.05;;